createdAt,value
2019-01-30T00:00:39.572Z,11.18
2019-01-30T00:01:15.884Z,11.25
2019-01-30T00:01:48.352Z,11.00
2019-01-30T00:02:20.824Z,11.28
2019-01-30T00:02:53.295Z,11.63
2019-01-30T00:03:25.766Z,12.15
2019-01-30T00:03:58.225Z,11.73
2019-01-30T00:04:30.689Z,11.50
2019-01-30T00:05:04.139Z,11.43
2019-01-30T00:05:36.847Z,11.73
2019-01-30T00:06:09.752Z,12.10
2019-01-30T00:06:42.251Z,11.45
2019-01-30T00:07:14.723Z,11.95
2019-01-30T00:07:47.598Z,11.22
2019-01-30T00:08:20.081Z,11.08
2019-01-30T00:08:52.853Z,11.25
2019-01-30T00:09:25.323Z,10.85
2019-01-30T00:09:57.778Z,10.70
2019-01-30T00:10:30.554Z,11.95
2019-01-30T00:11:03.272Z,12.28
2019-01-30T00:11:36.018Z,11.68
2019-01-30T00:12:09.905Z,10.60
2019-01-30T00:12:42.492Z,12.03
2019-01-30T00:13:15.321Z,12.10
2019-01-30T00:13:48.092Z,11.48
2019-01-30T00:14:20.541Z,12.43
2019-01-30T00:14:53.015Z,12.05
2019-01-30T00:15:25.778Z,12.10
2019-01-30T00:15:58.263Z,12.15
2019-01-30T00:16:30.732Z,12.10
2019-01-30T00:17:03.392Z,10.80
2019-01-30T00:17:36.237Z,12.23
2019-01-30T00:18:08.708Z,10.95
2019-01-30T00:18:41.176Z,13.08
2019-01-30T00:19:13.959Z,11.15
2019-01-30T00:19:46.794Z,12.23
2019-01-30T00:20:19.573Z,12.82
2019-01-30T00:20:52.039Z,12.15
2019-01-30T00:21:24.489Z,11.25
2019-01-30T00:21:57.661Z,11.28
2019-01-30T00:22:30.436Z,12.30
2019-01-30T00:23:02.922Z,11.75
2019-01-30T00:23:35.387Z,12.07
2019-01-30T00:24:08.227Z,10.90
2019-01-30T00:24:40.700Z,13.55
2019-01-30T00:25:13.384Z,11.60
2019-01-30T00:25:45.849Z,11.97
2019-01-30T00:26:18.756Z,11.65
2019-01-30T00:26:51.227Z,13.28
2019-01-30T00:27:23.686Z,10.70
2019-01-30T00:27:56.169Z,11.55
2019-01-30T00:28:28.666Z,12.23
2019-01-30T00:29:01.126Z,11.30
2019-01-30T00:29:33.616Z,11.48
2019-01-30T00:30:07.659Z,13.05
2019-01-30T00:30:40.136Z,11.68
2019-01-30T00:31:12.947Z,12.73
2019-01-30T00:31:45.404Z,12.55
2019-01-30T00:32:18.316Z,12.40
2019-01-30T00:32:50.782Z,12.13
2019-01-30T00:33:23.239Z,13.50
2019-01-30T00:33:55.734Z,13.00
2019-01-30T00:34:28.191Z,13.90
2019-01-30T00:35:01.031Z,13.32
2019-01-30T00:35:33.852Z,13.40
2019-01-30T00:36:06.311Z,13.35
2019-01-30T00:36:38.784Z,13.40
2019-01-30T00:37:11.242Z,13.65
2019-01-30T00:37:43.726Z,13.38
2019-01-30T00:38:16.502Z,13.20
2019-01-30T00:38:49.280Z,14.25
2019-01-30T00:39:22.161Z,14.30
2019-01-30T00:39:54.633Z,14.07
2019-01-30T00:40:27.094Z,14.58
2019-01-30T00:40:59.562Z,15.10
2019-01-30T00:41:32.035Z,14.35
2019-01-30T00:42:04.791Z,14.90
2019-01-30T00:42:37.251Z,13.50
2019-01-30T00:43:09.716Z,15.48
2019-01-30T00:43:42.580Z,14.98
2019-01-30T00:44:15.038Z,13.40
2019-01-30T00:44:47.839Z,15.80
2019-01-30T00:45:20.719Z,14.70
2019-01-30T00:45:53.190Z,14.70
2019-01-30T00:46:25.668Z,14.98
2019-01-30T00:46:58.599Z,13.55
2019-01-30T00:47:31.054Z,15.43
2019-01-30T00:48:03.930Z,15.98
2019-01-30T00:48:36.400Z,15.23
2019-01-30T00:49:09.208Z,14.53
2019-01-30T00:49:42.053Z,15.88
2019-01-30T00:50:14.882Z,14.40
2019-01-30T00:50:47.393Z,14.98
2019-01-30T00:51:19.844Z,14.95
2019-01-30T00:51:53.048Z,16.12
2019-01-30T00:52:25.515Z,15.13
2019-01-30T00:52:58.270Z,15.35
2019-01-30T00:53:30.841Z,15.20
2019-01-30T00:54:03.701Z,15.32
2019-01-30T00:54:36.171Z,15.63
2019-01-30T00:55:10.570Z,16.82
2019-01-30T00:55:43.078Z,16.07
2019-01-30T00:56:16.239Z,14.38
2019-01-30T00:56:48.727Z,15.35
2019-01-30T00:57:21.711Z,15.58
2019-01-30T00:57:54.175Z,16.12
2019-01-30T00:58:26.633Z,15.58
2019-01-30T00:58:59.093Z,15.90
2019-01-30T00:59:31.563Z,15.50
2019-01-30T01:00:14.447Z,16.35
2019-01-30T01:00:42.309Z,16.20
2019-01-30T01:01:14.816Z,17.87
2019-01-30T01:01:47.285Z,15.13
2019-01-30T01:02:19.734Z,15.85
2019-01-30T01:02:52.211Z,16.20
2019-01-30T01:03:24.675Z,16.82
2019-01-30T01:03:57.163Z,16.62
2019-01-30T01:04:29.632Z,16.12
2019-01-30T01:05:02.096Z,16.30
2019-01-30T01:05:34.566Z,16.70
2019-01-30T01:06:07.040Z,16.27
2019-01-30T01:06:39.534Z,15.98
2019-01-30T01:07:12.011Z,16.52
2019-01-30T01:07:44.693Z,15.80
2019-01-30T01:08:17.717Z,16.35
2019-01-30T01:08:50.170Z,17.30
2019-01-30T01:09:22.626Z,17.55
2019-01-30T01:09:55.411Z,16.70
2019-01-30T01:10:27.978Z,15.68
2019-01-30T01:11:00.437Z,16.17
2019-01-30T01:11:32.911Z,16.87
2019-01-30T01:12:05.405Z,16.45
2019-01-30T01:12:37.891Z,16.73
2019-01-30T01:13:10.360Z,16.12
2019-01-30T01:13:42.827Z,17.87
2019-01-30T01:14:15.582Z,17.40
2019-01-30T01:14:48.363Z,17.27
2019-01-30T01:15:20.814Z,16.45
2019-01-30T01:15:53.297Z,15.68
2019-01-30T01:16:25.754Z,17.12
2019-01-30T01:16:58.227Z,17.42
2019-01-30T01:17:30.722Z,15.38
2019-01-30T01:18:03.853Z,16.48
2019-01-30T01:18:37.044Z,17.15
2019-01-30T01:19:09.520Z,16.20
2019-01-30T01:19:41.975Z,17.17
2019-01-30T01:20:14.563Z,18.12
2019-01-30T01:20:47.419Z,16.65
2019-01-30T01:21:20.261Z,17.05
2019-01-30T01:21:52.713Z,16.45
2019-01-30T01:22:25.207Z,17.00
2019-01-30T01:22:57.702Z,19.00
2019-01-30T01:23:30.154Z,16.95
2019-01-30T01:24:02.615Z,18.12
2019-01-30T01:24:35.108Z,17.25
2019-01-30T01:25:10.361Z,16.73
2019-01-30T01:25:42.832Z,17.92
2019-01-30T01:26:15.294Z,16.87
2019-01-30T01:26:47.776Z,17.80
2019-01-30T01:27:20.591Z,17.60
2019-01-30T01:27:53.379Z,18.00
2019-01-30T01:28:26.138Z,18.70
2019-01-30T01:28:58.622Z,17.05
2019-01-30T01:29:31.436Z,18.27
2019-01-30T01:30:06.518Z,17.35
2019-01-30T01:30:38.985Z,19.32
2019-01-30T01:31:11.455Z,17.00
2019-01-30T01:31:44.422Z,17.25
2019-01-30T01:32:16.890Z,17.02
2019-01-30T01:32:49.362Z,17.40
2019-01-30T01:33:23.636Z,16.82
2019-01-30T01:33:56.199Z,18.02
2019-01-30T01:34:28.927Z,18.10
2019-01-30T01:35:01.427Z,16.75
2019-01-30T01:35:34.283Z,18.60
2019-01-30T01:36:06.850Z,18.52
2019-01-30T01:36:40.019Z,19.62
2019-01-30T01:37:12.474Z,18.30
2019-01-30T01:37:44.933Z,19.23
2019-01-30T01:38:17.798Z,18.37
2019-01-30T01:38:50.266Z,18.20
2019-01-30T01:39:23.335Z,19.75
2019-01-30T01:39:55.796Z,17.82
2019-01-30T01:40:28.257Z,18.70
2019-01-30T01:41:00.732Z,16.95
2019-01-30T01:41:33.201Z,18.62
2019-01-30T01:42:05.668Z,17.92
2019-01-30T01:42:38.138Z,16.35
2019-01-30T01:43:10.878Z,18.70
2019-01-30T01:43:43.342Z,18.25
2019-01-30T01:44:15.802Z,16.50
2019-01-30T01:44:48.589Z,17.65
2019-01-30T01:45:22.050Z,15.90
2019-01-30T01:45:54.519Z,18.52
2019-01-30T01:46:26.982Z,17.48
2019-01-30T01:46:59.453Z,17.62
2019-01-30T01:47:31.934Z,18.32
2019-01-30T01:48:04.401Z,19.17
2019-01-30T01:48:36.928Z,17.05
2019-01-30T01:49:09.398Z,17.90
2019-01-30T01:49:42.306Z,17.55
2019-01-30T01:50:18.037Z,19.23
2019-01-30T01:50:50.854Z,19.48
2019-01-30T01:51:23.730Z,17.55
2019-01-30T01:51:56.194Z,16.97
2019-01-30T01:52:28.668Z,17.40
2019-01-30T01:53:01.139Z,17.57
2019-01-30T01:53:33.608Z,17.90
2019-01-30T01:54:06.075Z,17.42
2019-01-30T01:54:38.534Z,18.70
2019-01-30T01:55:11.135Z,17.60
2019-01-30T01:55:43.625Z,17.92
2019-01-30T01:56:16.099Z,19.30
2019-01-30T01:56:48.566Z,19.40
2019-01-30T01:57:21.378Z,19.05
2019-01-30T01:57:53.843Z,18.40
2019-01-30T01:58:26.314Z,16.97
2019-01-30T01:58:59.098Z,15.65
2019-01-30T01:59:31.557Z,16.25
2019-01-30T02:00:07.418Z,17.48
2019-01-30T02:00:40.279Z,17.98
2019-01-30T02:01:12.776Z,18.07
2019-01-30T02:01:45.246Z,16.77
2019-01-30T02:02:18.075Z,18.90
2019-01-30T02:02:51.457Z,17.27
2019-01-30T02:03:23.931Z,17.55
2019-01-30T02:03:56.433Z,16.93
2019-01-30T02:04:28.907Z,18.35
2019-01-30T02:05:01.434Z,18.25
2019-01-30T02:05:34.583Z,18.82
2019-01-30T02:06:07.166Z,17.25
2019-01-30T02:06:40.013Z,17.77
2019-01-30T02:07:12.487Z,18.15
2019-01-30T02:07:44.947Z,18.32
2019-01-30T02:08:17.763Z,17.25
2019-01-30T02:08:50.241Z,17.70
2019-01-30T02:09:22.702Z,17.50
2019-01-30T02:09:55.179Z,16.40
2019-01-30T02:10:27.640Z,16.93
2019-01-30T02:11:00.119Z,18.48
2019-01-30T02:11:32.573Z,18.70
2019-01-30T02:12:05.180Z,18.60
2019-01-30T02:12:37.639Z,16.30
2019-01-30T02:13:10.111Z,18.50
2019-01-30T02:13:42.570Z,18.40
2019-01-30T02:14:15.034Z,18.52
2019-01-30T02:14:47.515Z,18.15
2019-01-30T02:15:21.255Z,18.48
2019-01-30T02:15:53.720Z,17.27
2019-01-30T02:16:26.174Z,16.95
2019-01-30T02:16:58.655Z,17.50
2019-01-30T02:17:31.146Z,17.52
2019-01-30T02:18:04.546Z,16.52
2019-01-30T02:18:37.451Z,16.37
2019-01-30T02:19:09.918Z,16.73
2019-01-30T02:19:42.433Z,18.35
2019-01-30T02:20:17.076Z,17.70
2019-01-30T02:20:49.947Z,19.25
2019-01-30T02:21:23.520Z,19.80
2019-01-30T02:21:55.987Z,17.17
2019-01-30T02:22:28.438Z,18.50
2019-01-30T02:23:01.719Z,17.87
2019-01-30T02:23:34.479Z,18.50
2019-01-30T02:24:06.941Z,17.50
2019-01-30T02:24:39.410Z,18.07
2019-01-30T02:25:11.983Z,18.15
2019-01-30T02:25:44.434Z,19.00
2019-01-30T02:26:16.897Z,17.82
2019-01-30T02:26:49.372Z,17.90
2019-01-30T02:27:21.848Z,18.65
2019-01-30T02:27:54.426Z,18.95
2019-01-30T02:28:27.247Z,17.90
2019-01-30T02:29:00.108Z,18.52
2019-01-30T02:29:32.575Z,19.62
2019-01-30T02:30:09.384Z,17.37
2019-01-30T02:30:47.466Z,18.95
2019-01-30T02:31:16.445Z,19.25
2019-01-30T02:31:48.905Z,20.02
2019-01-30T02:32:21.389Z,17.80
2019-01-30T02:32:53.894Z,19.75
2019-01-30T02:33:26.350Z,19.20
2019-01-30T02:33:59.432Z,18.87
2019-01-30T02:34:31.904Z,17.95
2019-01-30T02:35:04.475Z,18.60
2019-01-30T02:35:36.943Z,19.65
2019-01-30T02:36:09.419Z,18.80
2019-01-30T02:36:57.579Z,19.12
2019-01-30T02:37:30.369Z,18.45
2019-01-30T02:38:03.152Z,18.60
2019-01-30T02:38:36.024Z,17.60
2019-01-30T02:39:08.521Z,17.67
2019-01-30T02:39:40.999Z,19.15
2019-01-30T02:40:15.893Z,18.62
2019-01-30T02:40:48.340Z,18.23
2019-01-30T02:41:20.946Z,18.57
2019-01-30T02:41:53.542Z,19.23
2019-01-30T02:42:26.016Z,19.60
2019-01-30T02:42:59.631Z,19.27
2019-01-30T02:43:32.077Z,17.45
2019-01-30T02:44:04.650Z,18.12
2019-01-30T02:44:37.149Z,18.85
2019-01-30T02:45:10.850Z,18.05
2019-01-30T02:45:43.331Z,18.52
2019-01-30T02:46:15.840Z,19.00
2019-01-30T02:46:48.294Z,18.77
2019-01-30T02:47:20.764Z,19.42
2019-01-30T02:47:53.336Z,20.37
2019-01-30T02:48:25.804Z,19.30
2019-01-30T02:48:58.271Z,19.90
2019-01-30T02:49:30.751Z,17.65
2019-01-30T02:50:05.128Z,17.82
2019-01-30T02:50:37.582Z,17.82
2019-01-30T02:51:10.055Z,18.75
2019-01-30T02:51:42.525Z,19.80
2019-01-30T02:52:15.024Z,19.50
2019-01-30T02:52:47.683Z,18.57
2019-01-30T02:53:20.142Z,18.20
2019-01-30T02:53:52.611Z,19.55
2019-01-30T02:54:25.067Z,19.57
2019-01-30T02:54:57.536Z,19.32
2019-01-30T02:55:30.493Z,17.57
2019-01-30T02:56:03.071Z,19.42
2019-01-30T02:56:35.813Z,18.98
2019-01-30T02:57:08.291Z,17.73
2019-01-30T02:57:40.752Z,19.27
2019-01-30T02:58:13.616Z,18.40
2019-01-30T02:58:46.365Z,18.12
2019-01-30T02:59:19.315Z,18.92
2019-01-30T02:59:51.784Z,16.35
2019-01-30T03:00:26.565Z,19.12
2019-01-30T03:00:59.717Z,18.67
2019-01-30T03:01:34.077Z,18.60
2019-01-30T03:02:25.116Z,16.85
2019-01-30T03:02:57.696Z,17.65
2019-01-30T03:03:30.171Z,17.80
2019-01-30T03:04:02.633Z,18.15
2019-01-30T03:04:35.523Z,19.40
2019-01-30T03:05:09.795Z,17.62
2019-01-30T03:05:42.262Z,18.90
2019-01-30T03:06:15.022Z,18.75
2019-01-30T03:06:47.497Z,17.05
2019-01-30T03:07:20.218Z,18.17
2019-01-30T03:07:52.691Z,17.65
2019-01-30T03:08:25.160Z,16.57
2019-01-30T03:08:57.622Z,17.80
2019-01-30T03:09:30.082Z,17.67
2019-01-30T03:10:03.600Z,18.15
2019-01-30T03:10:36.060Z,17.45
2019-01-30T03:11:08.531Z,18.32
2019-01-30T03:11:41.022Z,18.42
2019-01-30T03:12:13.487Z,17.50
2019-01-30T03:12:45.953Z,17.55
2019-01-30T03:13:18.427Z,17.60
2019-01-30T03:13:50.879Z,17.50
2019-01-30T03:14:23.349Z,17.00
2019-01-30T03:14:56.107Z,17.27
2019-01-30T03:15:28.565Z,17.10
2019-01-30T03:16:01.040Z,17.27
2019-01-30T03:16:33.503Z,16.95
2019-01-30T03:17:05.997Z,17.57
2019-01-30T03:17:38.450Z,18.60
2019-01-30T03:18:10.915Z,17.25
2019-01-30T03:18:43.704Z,18.52
2019-01-30T03:19:16.162Z,17.95
2019-01-30T03:19:48.621Z,17.52
2019-01-30T03:20:23.096Z,16.90
2019-01-30T03:20:55.552Z,17.40
2019-01-30T03:21:28.398Z,16.95
2019-01-30T03:22:00.875Z,16.50
2019-01-30T03:22:33.739Z,17.48
2019-01-30T03:23:06.634Z,17.40
2019-01-30T03:23:39.438Z,16.40
2019-01-30T03:24:11.904Z,16.73
2019-01-30T03:24:44.361Z,17.95
2019-01-30T03:25:17.482Z,16.30
2019-01-30T03:25:50.298Z,17.02
2019-01-30T03:26:23.101Z,17.00
2019-01-30T03:26:55.563Z,16.15
2019-01-30T03:27:28.038Z,16.57
2019-01-30T03:28:00.537Z,16.57
2019-01-30T03:28:32.987Z,16.85
2019-01-30T03:29:05.829Z,16.52
2019-01-30T03:29:38.295Z,16.55
2019-01-30T03:30:16.731Z,16.65
2019-01-30T03:30:49.177Z,15.90
2019-01-30T03:31:21.678Z,16.10
2019-01-30T03:31:54.544Z,16.55
2019-01-30T03:32:27.003Z,15.10
2019-01-30T03:32:59.922Z,15.50
2019-01-30T03:33:32.416Z,16.87
2019-01-30T03:34:04.878Z,15.95
2019-01-30T03:34:37.348Z,17.25
2019-01-30T03:35:09.818Z,15.55
2019-01-30T03:35:42.288Z,16.80
2019-01-30T03:36:14.753Z,15.20
2019-01-30T03:36:47.202Z,16.20
2019-01-30T03:37:19.970Z,16.12
2019-01-30T03:37:52.430Z,16.32
2019-01-30T03:38:25.169Z,17.42
2019-01-30T03:38:57.666Z,16.45
2019-01-30T03:39:30.450Z,15.78
2019-01-30T03:40:05.008Z,15.68
2019-01-30T03:40:37.476Z,16.42
2019-01-30T03:41:09.946Z,15.48
2019-01-30T03:41:43.276Z,16.67
2019-01-30T03:42:16.047Z,17.82
2019-01-30T03:42:48.850Z,14.95
2019-01-30T03:43:21.306Z,16.40
2019-01-30T03:43:53.783Z,16.30
2019-01-30T03:44:26.280Z,15.68
2019-01-30T03:44:58.743Z,15.00
2019-01-30T03:45:31.214Z,16.50
2019-01-30T03:46:03.802Z,16.40
2019-01-30T03:46:36.261Z,15.70
2019-01-30T03:47:09.016Z,15.10
2019-01-30T03:47:41.480Z,15.55
2019-01-30T03:48:14.233Z,15.63
2019-01-30T03:48:47.002Z,15.43
2019-01-30T03:49:19.466Z,15.15
2019-01-30T03:49:51.967Z,15.30
2019-01-30T03:50:24.443Z,14.85
2019-01-30T03:50:57.195Z,15.15
2019-01-30T03:51:29.654Z,15.28
2019-01-30T03:52:02.493Z,15.08
2019-01-30T03:52:34.951Z,15.03
2019-01-30T03:53:07.456Z,16.25
2019-01-30T03:53:39.911Z,15.80
2019-01-30T03:54:12.387Z,14.50
2019-01-30T03:54:45.060Z,15.70
2019-01-30T03:55:18.028Z,15.93
2019-01-30T03:55:50.847Z,15.72
2019-01-30T03:56:23.329Z,14.87
2019-01-30T03:56:55.801Z,16.30
2019-01-30T03:57:28.970Z,17.30
2019-01-30T03:58:02.096Z,16.25
2019-01-30T03:58:34.675Z,16.93
2019-01-30T03:59:07.111Z,14.68
2019-01-30T03:59:39.584Z,14.85
2019-01-30T04:00:15.134Z,15.98
2019-01-30T04:00:47.631Z,16.87
2019-01-30T04:01:26.415Z,17.37
2019-01-30T04:01:54.652Z,15.65
2019-01-30T04:02:27.712Z,14.75
2019-01-30T04:03:00.360Z,16.32
2019-01-30T04:03:33.138Z,15.55
2019-01-30T04:04:05.950Z,16.90
2019-01-30T04:04:38.411Z,14.35
2019-01-30T04:05:10.990Z,13.93
2019-01-30T04:05:43.445Z,15.35
2019-01-30T04:06:16.061Z,15.58
2019-01-30T04:06:48.540Z,14.75
2019-01-30T04:07:21.019Z,15.95
2019-01-30T04:07:53.491Z,14.35
2019-01-30T04:08:25.957Z,14.43
2019-01-30T04:08:58.422Z,15.35
2019-01-30T04:09:31.231Z,14.33
2019-01-30T04:10:04.880Z,14.20
2019-01-30T04:10:37.338Z,13.55
2019-01-30T04:11:09.807Z,14.80
2019-01-30T04:11:42.409Z,16.15
2019-01-30T04:12:14.875Z,14.55
2019-01-30T04:12:47.326Z,14.28
2019-01-30T04:13:19.786Z,14.07
2019-01-30T04:13:52.559Z,14.75
2019-01-30T04:14:25.047Z,14.45
2019-01-30T04:14:57.802Z,14.38
2019-01-30T04:15:30.267Z,14.65
2019-01-30T04:16:03.059Z,15.45
2019-01-30T04:16:36.159Z,13.48
2019-01-30T04:17:08.999Z,14.13
2019-01-30T04:17:41.741Z,13.85
2019-01-30T04:18:14.615Z,14.18
2019-01-30T04:18:47.086Z,14.18
2019-01-30T04:19:19.555Z,14.00
2019-01-30T04:19:52.013Z,14.45
2019-01-30T04:20:24.491Z,15.32
2019-01-30T04:20:56.953Z,13.60
2019-01-30T04:21:29.421Z,14.85
2019-01-30T04:22:01.878Z,14.95
2019-01-30T04:22:34.407Z,14.30
2019-01-30T04:23:06.869Z,14.23
2019-01-30T04:23:40.071Z,13.72
2019-01-30T04:24:12.547Z,13.90
2019-01-30T04:24:45.003Z,14.25
2019-01-30T04:25:17.795Z,14.40
2019-01-30T04:25:50.299Z,13.18
2019-01-30T04:26:23.909Z,15.45
2019-01-30T04:26:56.666Z,14.38
2019-01-30T04:27:29.640Z,15.55
2019-01-30T04:28:02.140Z,13.75
2019-01-30T04:28:34.603Z,14.85
2019-01-30T04:29:07.072Z,14.87
2019-01-30T04:29:39.891Z,14.58
2019-01-30T04:30:17.598Z,14.78
2019-01-30T04:30:50.086Z,14.35
2019-01-30T04:31:22.539Z,14.07
2019-01-30T04:31:55.002Z,14.35
2019-01-30T04:32:27.472Z,15.30
2019-01-30T04:33:00.290Z,14.25
2019-01-30T04:33:32.786Z,14.93
2019-01-30T04:34:05.368Z,14.65
2019-01-30T04:34:37.839Z,15.23
2019-01-30T04:35:10.402Z,14.80
2019-01-30T04:35:42.872Z,15.05
2019-01-30T04:36:15.327Z,15.15
2019-01-30T04:36:48.326Z,14.90
2019-01-30T04:37:21.080Z,15.30
2019-01-30T04:37:54.281Z,13.75
2019-01-30T04:38:26.759Z,16.10
2019-01-30T04:38:59.281Z,14.83
2019-01-30T04:39:32.166Z,15.68
2019-01-30T04:40:06.078Z,15.23
2019-01-30T04:40:38.547Z,14.07
2019-01-30T04:41:11.399Z,14.95
2019-01-30T04:41:44.263Z,13.93
2019-01-30T04:42:16.745Z,14.35
2019-01-30T04:42:49.501Z,15.90
2019-01-30T04:43:21.977Z,13.88
2019-01-30T04:43:54.727Z,15.15
2019-01-30T04:44:27.611Z,14.38
2019-01-30T04:45:00.371Z,15.18
2019-01-30T04:45:32.838Z,15.78
2019-01-30T04:46:05.316Z,13.80
2019-01-30T04:46:38.072Z,15.50
2019-01-30T04:47:10.592Z,15.20
2019-01-30T04:47:43.316Z,14.53
2019-01-30T04:48:15.748Z,15.30
2019-01-30T04:48:48.675Z,14.43
2019-01-30T04:49:21.156Z,15.98
2019-01-30T04:49:53.647Z,15.45
2019-01-30T04:50:26.110Z,15.65
2019-01-30T04:50:58.580Z,16.07
2019-01-30T04:51:31.332Z,15.75
2019-01-30T04:52:04.512Z,15.45
2019-01-30T04:52:36.980Z,15.60
2019-01-30T04:53:10.043Z,15.83
2019-01-30T04:53:42.572Z,16.45
2019-01-30T04:54:15.037Z,16.07
2019-01-30T04:54:47.488Z,16.67
2019-01-30T04:55:20.006Z,16.50
2019-01-30T04:55:52.465Z,15.98
2019-01-30T04:56:25.370Z,15.60
2019-01-30T04:56:57.847Z,15.58
2019-01-30T04:57:30.339Z,15.30
2019-01-30T04:58:03.190Z,16.42
2019-01-30T04:58:35.660Z,17.87
2019-01-30T04:59:08.273Z,15.90
2019-01-30T04:59:40.748Z,15.70
2019-01-30T05:00:16.361Z,16.95
2019-01-30T05:00:48.871Z,15.23
2019-01-30T05:01:21.328Z,16.23
2019-01-30T05:01:53.807Z,16.00
2019-01-30T05:02:26.282Z,15.70
2019-01-30T05:02:58.741Z,15.83
2019-01-30T05:03:31.231Z,17.45
2019-01-30T05:04:03.814Z,17.45
2019-01-30T05:04:36.560Z,17.32
2019-01-30T05:05:10.048Z,16.48
2019-01-30T05:05:42.507Z,16.60
2019-01-30T05:06:15.041Z,15.88
2019-01-30T05:06:47.512Z,16.70
2019-01-30T05:07:19.992Z,17.00
2019-01-30T05:07:52.464Z,16.67
2019-01-30T05:08:25.253Z,16.23
2019-01-30T05:08:57.735Z,16.67
2019-01-30T05:09:30.197Z,16.20
2019-01-30T05:10:02.902Z,16.90
2019-01-30T05:10:35.376Z,17.82
2019-01-30T05:11:07.848Z,16.93
2019-01-30T05:11:40.364Z,18.15
2019-01-30T05:12:12.840Z,17.73
2019-01-30T05:12:45.680Z,18.73
2019-01-30T05:13:18.167Z,17.37
2019-01-30T05:13:51.032Z,18.92
2019-01-30T05:14:23.641Z,17.48
2019-01-30T05:14:56.083Z,17.00
2019-01-30T05:15:28.552Z,17.75
2019-01-30T05:16:01.026Z,17.35
2019-01-30T05:16:34.317Z,17.25
2019-01-30T05:17:06.828Z,17.35
2019-01-30T05:17:39.294Z,18.45
2019-01-30T05:18:11.770Z,17.40
2019-01-30T05:18:44.610Z,18.50
2019-01-30T05:19:17.101Z,16.45
2019-01-30T05:19:50.626Z,18.23
2019-01-30T05:20:23.094Z,16.75
2019-01-30T05:20:55.959Z,16.05
2019-01-30T05:21:28.926Z,16.48
2019-01-30T05:22:01.743Z,17.20
2019-01-30T05:22:34.223Z,16.32
2019-01-30T05:23:06.710Z,17.67
2019-01-30T05:23:39.704Z,17.07
2019-01-30T05:24:12.507Z,17.55
2019-01-30T05:24:44.975Z,18.80
2019-01-30T05:25:17.545Z,17.02
2019-01-30T05:25:50.008Z,17.80
2019-01-30T05:26:22.470Z,18.30
2019-01-30T05:26:55.079Z,17.20
2019-01-30T05:27:27.827Z,18.87
2019-01-30T05:28:00.658Z,18.90
2019-01-30T05:28:33.110Z,22.20
2019-01-30T05:29:05.678Z,21.68
2019-01-30T05:29:38.503Z,19.50
2019-01-30T05:30:14.798Z,18.55
2019-01-30T05:30:47.255Z,14.90
2019-01-30T05:31:21.976Z,16.70
2019-01-30T05:32:00.984Z,16.85
2019-01-30T05:32:28.910Z,16.67
2019-01-30T05:33:01.758Z,17.73
2019-01-30T05:33:34.671Z,16.15
2019-01-30T05:34:07.500Z,17.82
2019-01-30T05:34:39.965Z,17.37
2019-01-30T05:35:12.439Z,17.45
2019-01-30T05:35:45.227Z,16.87
2019-01-30T05:36:18.035Z,17.27
2019-01-30T05:36:51.301Z,16.48
2019-01-30T05:37:23.783Z,17.30
2019-01-30T05:37:56.259Z,17.50
2019-01-30T05:38:28.720Z,18.75
2019-01-30T05:39:01.215Z,18.98
2019-01-30T05:39:34.058Z,19.10
2019-01-30T05:40:09.523Z,18.07
2019-01-30T05:40:42.006Z,17.85
2019-01-30T05:41:14.480Z,18.60
2019-01-30T05:41:46.938Z,18.67
2019-01-30T05:42:19.415Z,18.65
2019-01-30T05:42:51.876Z,21.17
2019-01-30T05:43:24.454Z,18.95
2019-01-30T05:43:57.020Z,22.58
2019-01-30T05:44:29.515Z,24.80
2019-01-30T05:45:01.979Z,33.20
2019-01-30T05:45:34.441Z,30.65
2019-01-30T05:46:06.918Z,30.68
2019-01-30T05:46:39.397Z,28.80
2019-01-30T05:47:12.190Z,28.12
2019-01-30T05:47:44.661Z,28.05
2019-01-30T05:48:17.875Z,27.13
2019-01-30T05:48:50.755Z,25.85
2019-01-30T05:49:23.238Z,22.65
2019-01-30T05:49:55.719Z,22.85
2019-01-30T05:50:28.541Z,22.73
2019-01-30T05:51:01.303Z,20.77
2019-01-30T05:51:33.763Z,18.82
2019-01-30T05:52:06.236Z,19.55
2019-01-30T05:52:39.121Z,19.95
2019-01-30T05:53:11.578Z,19.50
2019-01-30T05:53:44.397Z,18.48
2019-01-30T05:54:17.188Z,20.85
2019-01-30T05:54:50.092Z,20.43
2019-01-30T05:55:22.600Z,19.32
2019-01-30T05:55:55.062Z,18.25
2019-01-30T05:56:27.522Z,19.30
2019-01-30T05:57:00.002Z,19.75
2019-01-30T05:57:32.453Z,19.55
2019-01-30T05:58:05.222Z,18.85
2019-01-30T05:58:37.682Z,18.73
2019-01-30T05:59:10.151Z,20.57
2019-01-30T05:59:42.605Z,20.25
2019-01-30T06:00:19.260Z,18.98
2019-01-30T06:00:51.778Z,20.92
2019-01-30T06:01:24.233Z,18.25
2019-01-30T06:01:57.183Z,18.98
2019-01-30T06:02:29.638Z,18.80
2019-01-30T06:03:02.146Z,18.52
2019-01-30T06:03:34.604Z,18.67
2019-01-30T06:04:07.536Z,20.65
2019-01-30T06:04:40.299Z,17.85
2019-01-30T06:05:12.884Z,18.98
2019-01-30T06:05:45.359Z,18.20
2019-01-30T06:06:17.851Z,19.07
2019-01-30T06:06:50.330Z,19.40
2019-01-30T06:07:23.617Z,19.50
2019-01-30T06:07:56.504Z,18.57
2019-01-30T06:08:32.969Z,18.52
2019-01-30T06:09:08.599Z,20.65
2019-01-30T06:09:44.937Z,20.35
2019-01-30T06:10:18.337Z,20.12
2019-01-30T06:10:51.145Z,20.55
2019-01-30T06:11:23.667Z,18.25
2019-01-30T06:11:56.143Z,19.87
2019-01-30T06:12:28.632Z,18.50
2019-01-30T06:13:01.114Z,19.20
2019-01-30T06:13:34.414Z,18.17
2019-01-30T06:14:06.899Z,19.20
2019-01-30T06:14:39.372Z,19.87
2019-01-30T06:15:12.627Z,19.00
2019-01-30T06:15:45.074Z,21.87
2019-01-30T06:16:17.531Z,19.05
2019-01-30T06:16:50.006Z,20.77
2019-01-30T06:17:22.457Z,20.10
2019-01-30T06:17:54.916Z,19.25
2019-01-30T06:18:27.404Z,18.82
2019-01-30T06:18:59.883Z,19.12
2019-01-30T06:19:32.351Z,19.27
2019-01-30T06:20:07.348Z,19.95
2019-01-30T06:20:39.813Z,20.02
2019-01-30T06:21:12.283Z,19.98
2019-01-30T06:21:44.752Z,18.98
2019-01-30T06:22:17.247Z,18.23
2019-01-30T06:22:49.707Z,19.37
2019-01-30T06:23:22.719Z,18.45
2019-01-30T06:23:55.194Z,18.32
2019-01-30T06:24:28.033Z,18.82
2019-01-30T06:25:00.498Z,17.50
2019-01-30T06:25:33.244Z,17.82
2019-01-30T06:26:05.706Z,17.70
2019-01-30T06:26:38.174Z,17.65
2019-01-30T06:27:10.631Z,18.98
2019-01-30T06:27:43.402Z,17.40
2019-01-30T06:28:15.870Z,18.70
2019-01-30T06:28:48.326Z,16.85
2019-01-30T06:29:20.785Z,17.52
2019-01-30T06:29:53.625Z,16.87
2019-01-30T06:30:26.510Z,18.37
2019-01-30T06:30:59.327Z,18.23
2019-01-30T06:31:31.795Z,18.35
2019-01-30T06:32:04.401Z,18.70
2019-01-30T06:32:36.892Z,18.77
2019-01-30T06:33:09.378Z,20.62
2019-01-30T06:33:41.852Z,16.97
2019-01-30T06:34:14.337Z,17.98
2019-01-30T06:34:46.939Z,18.85
2019-01-30T06:35:19.410Z,18.27
2019-01-30T06:35:51.877Z,18.45
2019-01-30T06:36:24.338Z,19.70
2019-01-30T06:36:56.832Z,20.17
2019-01-30T06:37:29.297Z,18.77
2019-01-30T06:38:02.218Z,18.98
2019-01-30T06:38:34.738Z,17.73
2019-01-30T06:39:07.506Z,17.42
2019-01-30T06:39:40.004Z,18.95
2019-01-30T06:40:15.141Z,17.48
2019-01-30T06:40:47.602Z,19.52
2019-01-30T06:41:20.080Z,17.85
2019-01-30T06:41:52.932Z,17.87
2019-01-30T06:42:25.407Z,18.55
2019-01-30T06:42:57.987Z,18.05
2019-01-30T06:43:30.468Z,16.90
2019-01-30T06:44:02.982Z,16.70
2019-01-30T06:44:35.445Z,19.77
2019-01-30T06:45:08.516Z,19.57
2019-01-30T06:45:41.287Z,17.85
2019-01-30T06:46:13.753Z,18.30
2019-01-30T06:46:46.216Z,18.20
2019-01-30T06:47:19.269Z,18.65
2019-01-30T06:47:51.849Z,17.77
2019-01-30T06:48:24.677Z,17.00
2019-01-30T06:48:57.134Z,16.45
2019-01-30T06:49:29.644Z,19.85
2019-01-30T06:50:02.224Z,17.65
2019-01-30T06:50:34.690Z,18.85
2019-01-30T06:51:07.174Z,17.73
2019-01-30T06:51:39.646Z,18.27
2019-01-30T06:52:12.106Z,18.23
2019-01-30T06:52:44.595Z,17.75
2019-01-30T06:53:17.500Z,16.80
2019-01-30T06:53:49.962Z,18.73
2019-01-30T06:54:22.435Z,18.12
2019-01-30T06:54:55.261Z,18.87
2019-01-30T06:55:27.750Z,18.05
2019-01-30T06:56:00.232Z,18.40
2019-01-30T06:56:32.702Z,18.05
2019-01-30T06:57:05.174Z,17.92
2019-01-30T06:57:38.685Z,17.25
2019-01-30T06:58:11.164Z,18.65
2019-01-30T06:58:44.027Z,16.97
2019-01-30T06:59:16.782Z,19.00
2019-01-30T06:59:49.567Z,18.80
2019-01-30T07:00:23.955Z,17.40
2019-01-30T07:00:56.443Z,17.42
2019-01-30T07:01:28.902Z,17.73
2019-01-30T07:02:01.369Z,19.48
2019-01-30T07:02:33.868Z,18.75